createdAt,value
2022-10-25T00:02:20.330Z,12.10
2022-10-25T00:04:49.942Z,12.10
2022-10-25T00:07:17.846Z,12.10
2022-10-25T00:09:45.693Z,12.10
2022-10-25T00:12:13.549Z,12.00
2022-10-25T00:14:41.396Z,11.90
2022-10-25T00:17:09.315Z,11.80
2022-10-25T00:19:37.352Z,11.80
2022-10-25T00:22:06.558Z,11.80
2022-10-25T00:24:34.434Z,11.70
2022-10-25T00:27:02.310Z,11.70
2022-10-25T00:29:30.192Z,11.70
2022-10-25T00:31:58.056Z,11.70
2022-10-25T00:34:26.073Z,11.80
2022-10-25T00:36:53.913Z,11.80
2022-10-25T00:39:23.113Z,11.80
2022-10-25T00:41:50.984Z,11.80
2022-10-25T00:44:47.095Z,11.80
2022-10-25T00:47:21.468Z,11.80
2022-10-25T00:49:56.428Z,11.70
2022-10-25T00:52:24.793Z,11.70
2022-10-25T00:54:55.502Z,11.60
2022-10-25T00:57:27.638Z,11.60
2022-10-25T00:59:55.768Z,11.60
2022-10-25T01:02:24.220Z,11.50
2022-10-25T01:04:53.490Z,11.50
2022-10-25T01:07:21.449Z,11.40
2022-10-25T01:09:49.661Z,11.40
2022-10-25T01:12:18.926Z,11.40
2022-10-25T01:14:49.346Z,11.40
2022-10-25T01:17:25.340Z,11.40
2022-10-25T01:20:31.314Z,11.30
2022-10-25T01:23:09.913Z,11.20
2022-10-25T01:25:56.517Z,11.00
2022-10-25T01:28:34.452Z,11.00
2022-10-25T01:31:17.526Z,10.90
2022-10-25T01:33:52.147Z,10.90
2022-10-25T01:36:26.980Z,10.90
2022-10-25T01:39:00.866Z,10.80
2022-10-25T01:41:37.254Z,10.90
2022-10-25T01:44:16.855Z,10.90
2022-10-25T01:46:51.812Z,10.90
2022-10-25T01:49:27.371Z,10.90
2022-10-25T01:51:55.477Z,10.90
2022-10-25T01:54:25.791Z,10.80
2022-10-25T01:57:04.480Z,10.70
2022-10-25T01:59:54.726Z,10.70
2022-10-25T02:02:31.514Z,10.60
2022-10-25T02:05:09.692Z,10.60
2022-10-25T02:07:39.937Z,10.70
2022-10-25T02:10:10.668Z,10.70
2022-10-25T02:12:49.519Z,10.80
2022-10-25T02:15:24.138Z,10.80
2022-10-25T02:17:58.455Z,10.80
2022-10-25T02:20:29.316Z,10.80
2022-10-25T02:23:00.612Z,10.90
2022-10-25T02:25:29.279Z,10.90
2022-10-25T02:27:59.444Z,10.90
2022-10-25T02:30:27.856Z,10.80
2022-10-25T02:32:56.969Z,10.80
2022-10-25T02:35:24.898Z,10.80
2022-10-25T02:37:52.658Z,10.70
2022-10-25T02:40:20.922Z,10.70
2022-10-25T02:42:48.654Z,10.70
2022-10-25T02:45:16.613Z,10.70
2022-10-25T02:47:44.584Z,10.60
2022-10-25T02:50:14.009Z,10.40
2022-10-25T02:52:41.826Z,10.30
2022-10-25T02:55:10.092Z,10.30
2022-10-25T02:57:38.965Z,10.30
2022-10-25T03:00:08.440Z,10.20
2022-10-25T03:02:36.261Z,10.20
2022-10-25T03:05:04.094Z,10.20
2022-10-25T03:07:33.208Z,10.10
2022-10-25T03:10:00.979Z,10.10
2022-10-25T03:12:28.739Z,10.00
2022-10-25T03:14:56.503Z,10.00
2022-10-25T03:17:24.236Z,9.90
2022-10-25T03:19:51.965Z,9.80
2022-10-25T03:22:19.708Z,9.70
2022-10-25T03:24:48.809Z,9.70
2022-10-25T03:27:17.690Z,9.70
2022-10-25T03:29:45.432Z,9.70
2022-10-25T03:32:13.182Z,9.60
2022-10-25T03:34:40.953Z,9.70
2022-10-25T03:37:08.718Z,9.60
2022-10-25T03:39:36.467Z,9.60
2022-10-25T03:42:05.691Z,9.60
2022-10-25T03:44:33.465Z,9.60
2022-10-25T03:47:01.205Z,9.60
2022-10-25T03:49:28.945Z,9.70
2022-10-25T03:51:58.888Z,9.70
2022-10-25T03:54:29.449Z,9.70
2022-10-25T03:56:57.339Z,9.80
2022-10-25T03:59:26.569Z,9.90
2022-10-25T04:01:54.653Z,9.90
2022-10-25T04:04:22.671Z,10.00
2022-10-25T04:06:50.456Z,10.10
2022-10-25T04:09:18.357Z,10.20
2022-10-25T04:11:46.102Z,10.30
2022-10-25T04:14:14.001Z,10.40
2022-10-25T04:16:43.081Z,10.40
2022-10-25T04:19:10.849Z,10.50
2022-10-25T04:21:38.581Z,10.50
2022-10-25T04:24:06.996Z,10.50
2022-10-25T04:26:36.500Z,10.50
2022-10-25T04:29:05.873Z,10.50
2022-10-25T04:31:34.213Z,10.50
2022-10-25T04:34:03.306Z,10.60
2022-10-25T04:36:32.116Z,10.60
2022-10-25T04:39:00.272Z,10.50
2022-10-25T04:41:28.022Z,10.60
2022-10-25T04:43:55.773Z,10.60
2022-10-25T04:46:23.949Z,10.60
2022-10-25T04:48:51.722Z,10.60
2022-10-25T04:51:21.014Z,10.60
2022-10-25T04:53:48.766Z,10.60
2022-10-25T04:56:16.540Z,10.50
2022-10-25T04:58:44.265Z,10.50
2022-10-25T05:01:15.294Z,10.40
2022-10-25T05:03:43.441Z,10.40
2022-10-25T05:06:12.791Z,10.40
2022-10-25T05:08:45.794Z,10.30
2022-10-25T05:11:15.131Z,10.30
2022-10-25T05:13:44.829Z,10.30
2022-10-25T05:16:17.071Z,10.30
2022-10-25T05:18:46.180Z,10.30
2022-10-25T05:21:14.914Z,10.30
2022-10-25T05:23:44.079Z,10.30
2022-10-25T05:26:13.892Z,10.30
2022-10-25T05:28:43.499Z,10.40
2022-10-25T05:31:15.077Z,10.40
2022-10-25T05:33:44.888Z,10.50
2022-10-25T05:36:13.863Z,10.50
2022-10-25T05:38:41.965Z,10.50
2022-10-25T05:41:12.756Z,10.60
2022-10-25T05:43:40.685Z,10.60
2022-10-25T05:46:11.343Z,10.60
2022-10-25T05:48:40.828Z,10.70
2022-10-25T05:51:28.988Z,10.80
2022-10-25T05:54:02.001Z,10.80
2022-10-25T05:56:32.211Z,10.80
2022-10-25T05:59:03.374Z,10.90
2022-10-25T06:01:31.217Z,11.00
2022-10-25T06:03:59.019Z,11.00
2022-10-25T06:06:27.153Z,11.00
2022-10-25T06:08:57.944Z,10.90
2022-10-25T06:11:26.796Z,10.90
2022-10-25T06:13:56.025Z,10.90
2022-10-25T06:16:24.129Z,10.90
2022-10-25T06:18:52.110Z,10.90
2022-10-25T06:21:22.073Z,10.90
2022-10-25T06:23:50.345Z,10.90
2022-10-25T06:26:19.801Z,10.90
2022-10-25T06:28:47.699Z,10.90
2022-10-25T06:31:18.748Z,11.00
2022-10-25T06:33:47.109Z,11.00
2022-10-25T06:36:16.802Z,11.00
2022-10-25T06:38:45.177Z,11.10
2022-10-25T06:41:15.049Z,11.10
2022-10-25T06:43:42.799Z,11.20
2022-10-25T06:46:12.069Z,11.30
2022-10-25T06:48:41.141Z,11.30
2022-10-25T06:51:10.057Z,11.40
2022-10-25T06:53:38.585Z,11.50
2022-10-25T06:56:10.677Z,11.60
2022-10-25T06:58:42.447Z,11.60
2022-10-25T07:01:13.043Z,11.60
2022-10-25T07:03:43.146Z,11.70
2022-10-25T07:06:12.645Z,11.70
2022-10-25T07:08:41.913Z,11.70
2022-10-25T07:11:13.884Z,11.80
2022-10-25T07:13:41.626Z,11.80
2022-10-25T07:16:12.113Z,11.90
2022-10-25T07:18:39.929Z,12.00
2022-10-25T07:21:12.737Z,12.20
2022-10-25T07:23:42.822Z,12.40
2022-10-25T07:26:11.549Z,12.60
2022-10-25T07:28:39.872Z,12.60
2022-10-25T07:31:07.945Z,12.70
2022-10-25T07:33:35.688Z,12.90
2022-10-25T07:36:10.692Z,12.90
2022-10-25T07:38:40.950Z,12.90
2022-10-25T07:41:09.405Z,13.00
2022-10-25T07:43:37.667Z,13.20
2022-10-25T07:46:06.414Z,13.30
2022-10-25T07:48:34.398Z,13.40
2022-10-25T07:51:05.012Z,13.50
2022-10-25T07:53:32.883Z,13.60
2022-10-25T07:56:02.072Z,13.70
2022-10-25T07:58:29.876Z,13.90
2022-10-25T08:01:02.267Z,14.50
2022-10-25T08:03:30.258Z,15.40
2022-10-25T08:05:58.196Z,16.40
2022-10-25T08:08:26.044Z,17.50
2022-10-25T08:10:54.116Z,18.60
2022-10-25T08:13:23.513Z,19.50
2022-10-25T08:15:51.801Z,20.40
2022-10-25T08:18:19.657Z,21.20
2022-10-25T08:21:02.804Z,21.70
2022-10-25T08:23:32.239Z,22.50
2022-10-25T08:26:00.280Z,22.90
2022-10-25T08:28:31.005Z,23.70
2022-10-25T08:31:00.476Z,24.80
2022-10-25T08:33:28.433Z,25.40
2022-10-25T08:35:56.193Z,25.30
2022-10-25T08:38:23.948Z,24.50
2022-10-25T08:40:59.010Z,24.70
2022-10-25T08:43:55.769Z,26.10
2022-10-25T08:46:28.436Z,27.20
2022-10-25T08:49:07.073Z,26.20
2022-10-25T08:51:38.770Z,24.50
2022-10-25T08:54:17.665Z,22.80
2022-10-25T08:56:56.944Z,21.40
2022-10-25T08:59:40.499Z,20.20
2022-10-25T09:02:17.234Z,19.30
2022-10-25T09:04:45.181Z,19.20
2022-10-25T09:07:32.356Z,20.60
2022-10-25T09:10:10.109Z,22.40
2022-10-25T09:12:45.050Z,25.50
2022-10-25T09:15:20.967Z,28.60
2022-10-25T09:17:51.565Z,31.00
2022-10-25T09:20:22.089Z,32.60
2022-10-25T09:22:54.689Z,33.60
2022-10-25T09:25:29.814Z,32.70
2022-10-25T09:28:01.126Z,32.70
2022-10-25T09:30:35.340Z,33.20
2022-10-25T09:33:06.787Z,32.90
2022-10-25T09:35:43.029Z,33.30
2022-10-25T09:38:15.481Z,34.10
2022-10-25T09:40:47.887Z,34.30
2022-10-25T09:43:19.159Z,33.90
2022-10-25T09:45:51.105Z,33.40
2022-10-25T09:48:27.052Z,32.90
2022-10-25T09:51:00.316Z,32.80
2022-10-25T09:53:28.072Z,32.70
2022-10-25T09:55:58.401Z,32.30
2022-10-25T09:58:28.499Z,31.40
2022-10-25T10:01:00.481Z,29.60
2022-10-25T10:03:31.127Z,28.30
2022-10-25T10:06:02.721Z,28.50
2022-10-25T10:08:35.073Z,28.80
2022-10-25T10:11:04.778Z,28.20
2022-10-25T10:13:38.361Z,27.00
2022-10-25T10:16:22.684Z,26.20
2022-10-25T10:18:50.477Z,25.40
2022-10-25T10:21:20.776Z,25.10
2022-10-25T10:23:52.921Z,26.20
2022-10-25T10:26:29.185Z,26.80
2022-10-25T10:29:15.377Z,25.90
2022-10-25T10:31:49.209Z,24.60
2022-10-25T10:34:28.625Z,23.70
2022-10-25T10:37:03.950Z,23.30
2022-10-25T10:39:32.098Z,23.00
2022-10-25T10:42:04.789Z,24.10
2022-10-25T10:44:34.759Z,26.40
2022-10-25T10:47:12.155Z,28.40
2022-10-25T10:49:42.614Z,29.90
2022-10-25T10:52:29.064Z,29.80
2022-10-25T10:54:57.749Z,28.70
2022-10-25T10:57:31.156Z,28.30
2022-10-25T11:00:00.789Z,29.00
2022-10-25T11:02:38.394Z,28.40
2022-10-25T11:05:20.700Z,26.80
2022-10-25T11:07:57.919Z,25.40
2022-10-25T11:10:31.197Z,24.70
2022-10-25T11:13:07.634Z,25.20
2022-10-25T11:15:53.689Z,26.20
2022-10-25T11:18:28.851Z,26.70
2022-10-25T11:21:04.601Z,26.50
2022-10-25T11:23:41.545Z,25.80
2022-10-25T11:26:17.839Z,25.30
2022-10-25T11:28:53.570Z,24.90
2022-10-25T11:31:32.986Z,24.30
2022-10-25T11:34:14.481Z,23.80
2022-10-25T11:36:53.368Z,23.50
2022-10-25T11:39:44.693Z,22.70
2022-10-25T11:42:32.749Z,21.90
2022-10-25T11:45:29.341Z,21.10
2022-10-25T11:48:13.960Z,20.60
2022-10-25T11:50:50.819Z,20.50
2022-10-25T11:53:30.905Z,20.90
2022-10-25T11:56:04.761Z,21.40
2022-10-25T11:58:42.370Z,21.60
2022-10-25T12:01:23.627Z,22.10
2022-10-25T12:04:07.357Z,22.00
2022-10-25T12:06:45.379Z,22.90
2022-10-25T12:09:25.182Z,25.00
2022-10-25T12:11:59.153Z,27.30
2022-10-25T12:14:33.914Z,29.00
2022-10-25T12:17:03.885Z,28.10
2022-10-25T12:19:37.778Z,26.70
2022-10-25T12:22:12.941Z,25.40
2022-10-25T12:24:44.880Z,24.90
2022-10-25T12:27:13.489Z,25.80
2022-10-25T12:29:45.024Z,26.50
2022-10-25T12:32:18.068Z,26.50
2022-10-25T12:34:49.104Z,26.20
2022-10-25T12:37:28.056Z,26.70
2022-10-25T12:39:56.001Z,27.00
2022-10-25T12:42:26.244Z,28.00
2022-10-25T12:45:33.640Z,28.00
2022-10-25T12:48:14.348Z,27.50
2022-10-25T12:50:58.688Z,27.10
2022-10-25T12:53:56.291Z,28.00
2022-10-25T12:56:34.774Z,28.40
2022-10-25T12:59:09.988Z,27.40
2022-10-25T13:02:03.073Z,26.80
2022-10-25T13:04:51.441Z,27.50
2022-10-25T13:07:19.932Z,28.60
2022-10-25T13:09:50.923Z,28.00
2022-10-25T13:12:26.150Z,27.40
2022-10-25T13:14:56.081Z,26.20
2022-10-25T13:17:48.214Z,25.00
2022-10-25T13:20:51.189Z,23.70
2022-10-25T13:23:59.826Z,22.50
2022-10-25T13:26:32.920Z,21.60
2022-10-25T13:29:03.049Z,21.00
2022-10-25T13:31:58.361Z,20.90
2022-10-25T13:34:36.737Z,21.40
2022-10-25T13:37:07.333Z,23.00
2022-10-25T13:39:40.004Z,24.80
2022-10-25T13:42:23.261Z,26.40
2022-10-25T13:44:56.373Z,27.50
2022-10-25T13:47:39.263Z,28.10
2022-10-25T13:50:20.562Z,28.00
2022-10-25T13:53:02.526Z,27.70
2022-10-25T13:55:34.900Z,27.10
2022-10-25T13:58:41.604Z,26.40
2022-10-25T14:01:57.673Z,25.50
2022-10-25T14:04:37.840Z,24.50
2022-10-25T14:07:43.213Z,23.50
2022-10-25T14:12:54.393Z,22.20
2022-10-25T14:15:36.098Z,21.60
2022-10-25T14:18:08.797Z,21.00
2022-10-25T14:20:37.591Z,20.40
2022-10-25T14:23:07.966Z,19.80
2022-10-25T14:25:38.223Z,19.50
2022-10-25T14:28:08.305Z,19.10
2022-10-25T14:30:40.885Z,18.80
2022-10-25T14:33:22.927Z,18.60
2022-10-25T14:35:52.228Z,18.50
2022-10-25T14:38:22.293Z,18.30
2022-10-25T14:40:55.076Z,18.20
2022-10-25T14:43:26.194Z,18.20
2022-10-25T14:46:04.529Z,18.10
2022-10-25T14:48:32.710Z,18.10
2022-10-25T14:51:05.306Z,18.10
2022-10-25T14:53:33.541Z,18.10
2022-10-25T14:56:04.771Z,18.20
2022-10-25T14:58:40.877Z,18.20
2022-10-25T15:01:12.467Z,18.10
2022-10-25T15:03:43.515Z,18.00
2022-10-25T15:06:13.965Z,17.90
2022-10-25T15:08:49.161Z,17.80
2022-10-25T15:11:21.043Z,17.70
2022-10-25T15:13:50.969Z,17.60
2022-10-25T15:16:32.253Z,17.50
2022-10-25T15:19:18.387Z,17.30
2022-10-25T15:21:48.913Z,17.20
2022-10-25T15:24:20.298Z,17.10
2022-10-25T15:26:59.546Z,17.00
2022-10-25T15:29:32.298Z,16.90
2022-10-25T15:32:01.373Z,16.70
2022-10-25T15:34:29.209Z,16.60
2022-10-25T15:36:56.979Z,16.40
2022-10-25T15:39:27.785Z,16.30
2022-10-25T15:41:55.965Z,16.20
2022-10-25T15:44:23.705Z,16.10
2022-10-25T15:46:51.502Z,16.00
2022-10-25T15:49:20.735Z,15.90
2022-10-25T15:51:48.597Z,15.80
2022-10-25T15:54:17.612Z,15.70
2022-10-25T15:56:45.919Z,15.70
2022-10-25T16:01:50.799Z,15.50
2022-10-25T16:04:20.753Z,15.40
2022-10-25T16:06:48.896Z,15.20
2022-10-25T16:09:16.646Z,15.20
2022-10-25T16:11:48.987Z,15.10
2022-10-25T16:14:21.545Z,15.00
2022-10-25T16:16:49.453Z,14.90
2022-10-25T16:19:18.983Z,14.80
2022-10-25T16:21:48.078Z,14.80
2022-10-25T16:24:15.922Z,14.60
2022-10-25T16:26:46.053Z,14.60
2022-10-25T16:29:16.462Z,14.50
2022-10-25T16:31:44.340Z,14.40
2022-10-25T16:34:12.564Z,14.30
2022-10-25T16:36:40.315Z,14.20
2022-10-25T16:39:11.278Z,14.10
2022-10-25T16:41:40.821Z,14.10
2022-10-25T16:44:10.292Z,14.00
2022-10-25T16:46:38.105Z,13.90
2022-10-25T16:49:06.129Z,13.80
2022-10-25T16:51:34.684Z,13.80
2022-10-25T16:54:03.088Z,13.70
2022-10-25T16:56:32.290Z,13.70
2022-10-25T16:59:00.416Z,13.60
2022-10-25T17:01:31.213Z,13.50
2022-10-25T17:03:59.086Z,13.40
2022-10-25T17:06:42.943Z,13.40
2022-10-25T17:09:11.708Z,13.30
2022-10-25T17:11:41.102Z,13.20
2022-10-25T17:14:10.151Z,13.20
2022-10-25T17:16:39.465Z,13.10
2022-10-25T17:19:07.231Z,13.10
2022-10-25T17:21:35.711Z,13.10
2022-10-25T17:24:04.468Z,13.00
2022-10-25T17:26:32.216Z,12.90
2022-10-25T17:29:01.735Z,12.80
2022-10-25T17:31:29.847Z,12.60
2022-10-25T17:33:57.669Z,12.50
2022-10-25T17:36:26.386Z,12.40
2022-10-25T17:38:54.857Z,12.40
2022-10-25T17:41:22.695Z,12.20
2022-10-25T17:43:53.207Z,12.10
2022-10-25T17:46:27.511Z,12.10
2022-10-25T17:48:56.474Z,12.10
2022-10-25T17:51:24.400Z,12.00
2022-10-25T17:53:53.949Z,11.90
2022-10-25T17:56:23.091Z,11.80
2022-10-25T17:58:51.834Z,11.70
2022-10-25T18:01:21.927Z,11.70
2022-10-25T18:03:51.634Z,11.60
2022-10-25T18:08:54.262Z,11.40
2022-10-25T18:11:23.428Z,11.30
2022-10-25T18:13:51.622Z,11.30
2022-10-25T18:16:21.677Z,11.20
2022-10-25T18:18:50.767Z,11.10
2022-10-25T18:21:18.729Z,11.10
2022-10-25T18:23:46.505Z,11.00
2022-10-25T18:26:16.602Z,11.00
2022-10-25T18:28:44.573Z,10.90
2022-10-25T18:31:13.861Z,10.90
2022-10-25T18:33:43.383Z,10.90
2022-10-25T18:36:17.523Z,10.90
2022-10-25T18:38:45.718Z,10.90
2022-10-25T18:41:16.862Z,10.90
2022-10-25T18:43:44.916Z,10.90
2022-10-25T18:46:12.777Z,10.90
2022-10-25T18:48:40.529Z,10.90
2022-10-25T18:51:12.976Z,10.90
2022-10-25T18:53:41.185Z,10.80
2022-10-25T18:56:10.495Z,10.80
2022-10-25T18:58:38.343Z,10.80
2022-10-25T19:01:10.216Z,10.80
2022-10-25T19:03:38.766Z,10.70
2022-10-25T19:06:07.752Z,10.70
2022-10-25T19:08:37.711Z,10.80
2022-10-25T19:11:06.197Z,10.70
2022-10-25T19:13:34.136Z,10.70
2022-10-25T19:16:02.586Z,10.70
2022-10-25T19:18:32.222Z,10.70
2022-10-25T19:21:02.961Z,10.70
2022-10-25T19:23:30.801Z,10.70
2022-10-25T19:26:03.080Z,10.70
2022-10-25T19:28:30.967Z,10.80
2022-10-25T19:31:04.125Z,10.80
2022-10-25T19:33:31.877Z,10.70
2022-10-25T19:36:02.997Z,10.70
2022-10-25T19:38:30.791Z,10.70
2022-10-25T19:41:02.210Z,10.70
2022-10-25T19:43:30.085Z,10.70
2022-10-25T19:45:58.644Z,10.70
2022-10-25T19:48:28.372Z,10.60
2022-10-25T19:50:56.216Z,10.60
2022-10-25T19:53:24.316Z,10.50
2022-10-25T19:56:04.434Z,10.60
2022-10-25T19:58:32.227Z,10.60
2022-10-25T20:01:05.794Z,10.60
2022-10-25T20:03:34.010Z,10.70
2022-10-25T20:06:04.360Z,10.70
2022-10-25T20:08:33.472Z,10.70
2022-10-25T20:11:03.009Z,10.80
2022-10-25T20:13:32.551Z,10.90
2022-10-25T20:16:00.521Z,10.90
2022-10-25T20:18:31.793Z,10.90
2022-10-25T20:21:01.832Z,10.90
2022-10-25T20:23:30.024Z,10.90
2022-10-25T20:25:57.810Z,10.80
2022-10-25T20:28:26.941Z,10.80
2022-10-25T20:30:54.755Z,10.70
2022-10-25T20:33:22.497Z,10.70
2022-10-25T20:35:50.261Z,10.60
2022-10-25T20:38:18.042Z,10.50
2022-10-25T20:40:45.841Z,10.50
2022-10-25T20:43:13.606Z,10.40
2022-10-25T20:45:44.034Z,10.40
2022-10-25T20:48:11.889Z,10.30
2022-10-25T20:50:42.972Z,10.30
2022-10-25T20:53:11.921Z,10.20
2022-10-25T20:55:39.949Z,10.20
2022-10-25T20:58:07.746Z,10.20
2022-10-25T21:00:35.506Z,10.10
2022-10-25T21:03:04.620Z,10.10
2022-10-25T21:05:32.494Z,10.00
2022-10-25T21:08:00.240Z,10.00
2022-10-25T21:10:27.999Z,9.90
2022-10-25T21:12:55.734Z,9.80
2022-10-25T21:15:23.498Z,9.70
2022-10-25T21:17:51.461Z,9.70
2022-10-25T21:20:20.889Z,9.60
2022-10-25T21:22:48.645Z,9.50
2022-10-25T21:25:16.769Z,9.50
2022-10-25T21:27:44.604Z,9.50
2022-10-25T21:30:12.620Z,9.50
2022-10-25T21:32:40.409Z,9.50
2022-10-25T21:35:08.900Z,9.50
2022-10-25T21:37:37.992Z,9.60
2022-10-25T21:40:06.393Z,9.60
2022-10-25T21:42:34.576Z,9.60
2022-10-25T21:45:02.353Z,9.60
2022-10-25T21:47:30.116Z,9.60
2022-10-25T21:49:58.345Z,9.60
2022-10-25T21:52:26.109Z,9.60
2022-10-25T21:54:55.188Z,9.70
2022-10-25T21:57:22.969Z,9.70
2022-10-25T21:59:50.749Z,9.70
2022-10-25T22:02:18.643Z,9.70
2022-10-25T22:04:46.526Z,9.60
2022-10-25T22:07:14.254Z,9.50
2022-10-25T22:09:42.088Z,9.50
2022-10-25T22:12:11.181Z,9.50
2022-10-25T22:14:38.960Z,9.50
2022-10-25T22:17:07.150Z,9.50
2022-10-25T22:19:34.903Z,9.60
2022-10-25T22:22:02.649Z,9.60
2022-10-25T22:24:30.456Z,9.60
2022-10-25T22:26:58.176Z,9.70
2022-10-25T22:29:27.269Z,9.70
2022-10-25T22:31:55.018Z,9.70
2022-10-25T22:34:22.774Z,9.80
2022-10-25T22:36:50.635Z,9.90
2022-10-25T22:39:18.368Z,9.90
2022-10-25T22:41:46.175Z,9.90
2022-10-25T22:44:13.975Z,10.00
2022-10-25T22:46:43.092Z,10.00
2022-10-25T22:49:10.969Z,9.90
2022-10-25T22:51:39.357Z,10.00
2022-10-25T22:54:07.307Z,10.00
2022-10-25T22:56:35.375Z,10.00
2022-10-25T22:59:05.303Z,10.00
2022-10-25T23:01:34.924Z,10.00
2022-10-25T23:04:06.893Z,10.00
2022-10-25T23:06:36.625Z,10.00
2022-10-25T23:09:08.839Z,10.00
2022-10-25T23:11:38.131Z,10.00
2022-10-25T23:14:07.316Z,10.00
2022-10-25T23:16:35.482Z,10.00
2022-10-25T23:19:04.643Z,10.00
2022-10-25T23:21:33.228Z,10.00
2022-10-25T23:24:01.459Z,10.00
2022-10-25T23:26:31.711Z,10.00
2022-10-25T23:29:00.359Z,10.00
2022-10-25T23:31:28.732Z,9.90
2022-10-25T23:33:58.102Z,10.00
2022-10-25T23:36:29.162Z,9.90
2022-10-25T23:38:58.814Z,9.90
2022-10-25T23:41:26.666Z,9.90
2022-10-25T23:43:54.453Z,9.80
2022-10-25T23:46:22.512Z,9.80
2022-10-25T23:48:50.281Z,9.70
2022-10-25T23:51:19.188Z,9.70
2022-10-25T23:53:48.680Z,9.70
2022-10-25T23:56:16.557Z,9.60
2022-10-25T23:58:44.312Z,9.70
